sensor_id;sensor_type;location;lat;lon;timestamp;temperature;humidity
7704;DHT22;3894;49.700;10.770;2022-12-16T00:01:54;-2.90;99.90
7704;DHT22;3894;49.700;10.770;2022-12-16T00:04:20;-2.90;99.90
7704;DHT22;3894;49.700;10.770;2022-12-16T00:06:46;-2.90;99.90
7704;DHT22;3894;49.700;10.770;2022-12-16T00:09:11;-2.90;99.90
7704;DHT22;3894;49.700;10.770;2022-12-16T00:11:37;-2.90;99.90
7704;DHT22;3894;49.700;10.770;2022-12-16T00:14:03;-2.90;99.90
7704;DHT22;3894;49.700;10.770;2022-12-16T00:16:28;-2.90;99.90
7704;DHT22;3894;49.700;10.770;2022-12-16T00:18:54;-2.90;99.90
7704;DHT22;3894;49.700;10.770;2022-12-16T00:21:20;-2.90;99.90
7704;DHT22;3894;49.700;10.770;2022-12-16T00:23:46;-2.90;99.90
7704;DHT22;3894;49.700;10.770;2022-12-16T00:26:12;-2.90;99.90
7704;DHT22;3894;49.700;10.770;2022-12-16T00:28:39;-2.90;99.90
7704;DHT22;3894;49.700;10.770;2022-12-16T00:31:05;-2.80;99.90
7704;DHT22;3894;49.700;10.770;2022-12-16T00:33:31;-2.80;99.90
7704;DHT22;3894;49.700;10.770;2022-12-16T00:35:57;-2.80;99.90
7704;DHT22;3894;49.700;10.770;2022-12-16T00:38:24;-2.80;99.90
7704;DHT22;3894;49.700;10.770;2022-12-16T00:40:50;-2.80;99.90
7704;DHT22;3894;49.700;10.770;2022-12-16T00:43:16;-2.80;99.90
7704;DHT22;3894;49.700;10.770;2022-12-16T00:45:42;-2.80;99.90
7704;DHT22;3894;49.700;10.770;2022-12-16T00:48:07;-2.80;99.90
7704;DHT22;3894;49.700;10.770;2022-12-16T00:50:34;-2.80;99.90
7704;DHT22;3894;49.700;10.770;2022-12-16T00:53:00;-2.80;99.90
7704;DHT22;3894;49.700;10.770;2022-12-16T00:55:26;-2.80;99.90
7704;DHT22;3894;49.700;10.770;2022-12-16T00:57:51;-2.80;99.90
7704;DHT22;3894;49.700;10.770;2022-12-16T01:00:17;-2.80;99.90
7704;DHT22;3894;49.700;10.770;2022-12-16T01:02:46;-2.80;99.90
7704;DHT22;3894;49.700;10.770;2022-12-16T01:05:14;-2.80;99.90
7704;DHT22;3894;49.700;10.770;2022-12-16T01:07:40;-2.80;99.90
7704;DHT22;3894;49.700;10.770;2022-12-16T01:10:07;-2.80;99.90
7704;DHT22;3894;49.700;10.770;2022-12-16T01:12:34;-2.80;99.90
7704;DHT22;3894;49.700;10.770;2022-12-16T01:15:00;-2.80;99.90
7704;DHT22;3894;49.700;10.770;2022-12-16T01:17:26;-2.80;99.90
7704;DHT22;3894;49.700;10.770;2022-12-16T01:19:52;-2.80;99.90
7704;DHT22;3894;49.700;10.770;2022-12-16T01:22:19;-2.80;99.90
7704;DHT22;3894;49.700;10.770;2022-12-16T01:24:45;-2.80;99.90
7704;DHT22;3894;49.700;10.770;2022-12-16T01:27:11;-2.80;99.90
7704;DHT22;3894;49.700;10.770;2022-12-16T01:29:37;-2.80;99.90
7704;DHT22;3894;49.700;10.770;2022-12-16T01:32:03;-2.80;99.90
7704;DHT22;3894;49.700;10.770;2022-12-16T01:34:29;-2.80;99.90
7704;DHT22;3894;49.700;10.770;2022-12-16T01:36:55;-2.80;99.90
7704;DHT22;3894;49.700;10.770;2022-12-16T01:39:20;-2.80;99.90
7704;DHT22;3894;49.700;10.770;2022-12-16T01:41:46;-2.80;99.90
7704;DHT22;3894;49.700;10.770;2022-12-16T01:44:23;-2.80;99.90
7704;DHT22;3894;49.700;10.770;2022-12-16T01:46:54;-2.70;99.90
7704;DHT22;3894;49.700;10.770;2022-12-16T01:49:43;-2.80;99.90
7704;DHT22;3894;49.700;10.770;2022-12-16T01:52:14;-2.80;99.90
7704;DHT22;3894;49.700;10.770;2022-12-16T01:54:46;-2.80;99.90
7704;DHT22;3894;49.700;10.770;2022-12-16T01:57:19;-2.90;99.90
7704;DHT22;3894;49.700;10.770;2022-12-16T01:59:48;-2.90;99.90
7704;DHT22;3894;49.700;10.770;2022-12-16T02:02:15;-2.90;99.90
7704;DHT22;3894;49.700;10.770;2022-12-16T02:04:41;-2.90;99.90
7704;DHT22;3894;49.700;10.770;2022-12-16T02:07:30;-2.90;99.90
7704;DHT22;3894;49.700;10.770;2022-12-16T02:09:56;-2.90;99.90
7704;DHT22;3894;49.700;10.770;2022-12-16T02:12:37;-2.90;99.90
7704;DHT22;3894;49.700;10.770;2022-12-16T02:17:57;-2.90;99.90
7704;DHT22;3894;49.700;10.770;2022-12-16T02:21:04;-2.90;99.90
7704;DHT22;3894;49.700;10.770;2022-12-16T02:35:11;-2.80;99.90
7704;DHT22;3894;49.700;10.770;2022-12-16T02:38:17;-2.80;99.90
7704;DHT22;3894;49.700;10.770;2022-12-16T02:41:03;-2.80;99.90
7704;DHT22;3894;49.700;10.770;2022-12-16T02:43:47;-2.80;99.90
7704;DHT22;3894;49.700;10.770;2022-12-16T02:46:16;-2.80;99.90
7704;DHT22;3894;49.700;10.770;2022-12-16T02:48:42;-2.80;99.90
7704;DHT22;3894;49.700;10.770;2022-12-16T02:51:08;-2.80;99.90
7704;DHT22;3894;49.700;10.770;2022-12-16T02:53:36;-2.80;99.90
7704;DHT22;3894;49.700;10.770;2022-12-16T03:01:54;-2.80;99.90
7704;DHT22;3894;49.700;10.770;2022-12-16T03:04:37;-2.80;99.90
7704;DHT22;3894;49.700;10.770;2022-12-16T03:07:06;-2.80;99.90
7704;DHT22;3894;49.700;10.770;2022-12-16T03:09:37;-2.70;99.90
7704;DHT22;3894;49.700;10.770;2022-12-16T03:12:06;-2.70;99.90
7704;DHT22;3894;49.700;10.770;2022-12-16T03:14:34;-2.70;99.90
7704;DHT22;3894;49.700;10.770;2022-12-16T03:17:02;-2.70;99.90
7704;DHT22;3894;49.700;10.770;2022-12-16T03:19:28;-2.70;99.90
7704;DHT22;3894;49.700;10.770;2022-12-16T03:24:25;-2.70;99.90
7704;DHT22;3894;49.700;10.770;2022-12-16T03:27:07;-2.70;99.90
7704;DHT22;3894;49.700;10.770;2022-12-16T03:35:36;-2.70;99.90
7704;DHT22;3894;49.700;10.770;2022-12-16T03:38:08;-2.70;99.90
7704;DHT22;3894;49.700;10.770;2022-12-16T03:40:37;-2.70;99.90
7704;DHT22;3894;49.700;10.770;2022-12-16T03:43:06;-2.70;99.90
7704;DHT22;3894;49.700;10.770;2022-12-16T03:45:36;-2.70;99.90
7704;DHT22;3894;49.700;10.770;2022-12-16T03:48:03;-2.70;99.90
7704;DHT22;3894;49.700;10.770;2022-12-16T03:50:32;-2.70;99.90
7704;DHT22;3894;49.700;10.770;2022-12-16T03:52:58;-2.70;99.90
7704;DHT22;3894;49.700;10.770;2022-12-16T03:55:24;-2.70;99.90
7704;DHT22;3894;49.700;10.770;2022-12-16T03:57:50;-2.70;99.90
7704;DHT22;3894;49.700;10.770;2022-12-16T04:00:16;-2.70;99.90
7704;DHT22;3894;49.700;10.770;2022-12-16T04:02:43;-2.70;99.90
7704;DHT22;3894;49.700;10.770;2022-12-16T04:05:09;-2.70;99.90
7704;DHT22;3894;49.700;10.770;2022-12-16T04:07:35;-2.70;99.90
7704;DHT22;3894;49.700;10.770;2022-12-16T04:10:01;-2.70;99.90
7704;DHT22;3894;49.700;10.770;2022-12-16T04:12:26;-2.70;99.90
7704;DHT22;3894;49.700;10.770;2022-12-16T04:15:11;-2.70;99.90
7704;DHT22;3894;49.700;10.770;2022-12-16T04:17:55;-2.70;99.90
7704;DHT22;3894;49.700;10.770;2022-12-16T04:20:43;-2.70;99.90
7704;DHT22;3894;49.700;10.770;2022-12-16T04:23:30;-2.70;99.90
7704;DHT22;3894;49.700;10.770;2022-12-16T04:26:14;-2.70;99.90
7704;DHT22;3894;49.700;10.770;2022-12-16T04:28:40;-2.70;99.90
7704;DHT22;3894;49.700;10.770;2022-12-16T04:31:07;-2.70;99.90
7704;DHT22;3894;49.700;10.770;2022-12-16T04:33:32;-2.70;99.90
7704;DHT22;3894;49.700;10.770;2022-12-16T04:36:17;-2.70;99.90
7704;DHT22;3894;49.700;10.770;2022-12-16T04:39:02;-2.70;99.90
7704;DHT22;3894;49.700;10.770;2022-12-16T04:41:46;-2.70;99.90
7704;DHT22;3894;49.700;10.770;2022-12-16T04:44:30;-2.70;99.90
7704;DHT22;3894;49.700;10.770;2022-12-16T04:47:14;-2.70;99.90
7704;DHT22;3894;49.700;10.770;2022-12-16T04:49:58;-2.70;99.90
7704;DHT22;3894;49.700;10.770;2022-12-16T04:52:42;-2.70;99.90
7704;DHT22;3894;49.700;10.770;2022-12-16T04:55:27;-2.70;99.90
7704;DHT22;3894;49.700;10.770;2022-12-16T04:58:11;-2.70;99.90
7704;DHT22;3894;49.700;10.770;2022-12-16T05:00:55;-2.70;99.90
7704;DHT22;3894;49.700;10.770;2022-12-16T05:03:39;-2.70;99.90
7704;DHT22;3894;49.700;10.770;2022-12-16T05:06:23;-2.70;99.90
7704;DHT22;3894;49.700;10.770;2022-12-16T05:09:07;-2.70;99.90
7704;DHT22;3894;49.700;10.770;2022-12-16T05:11:52;-2.70;99.90
7704;DHT22;3894;49.700;10.770;2022-12-16T05:14:36;-2.70;99.90
7704;DHT22;3894;49.700;10.770;2022-12-16T05:17:21;-2.70;99.90
7704;DHT22;3894;49.700;10.770;2022-12-16T05:20:06;-2.70;99.90
7704;DHT22;3894;49.700;10.770;2022-12-16T05:22:51;-2.70;99.90
7704;DHT22;3894;49.700;10.770;2022-12-16T05:25:38;-2.70;99.90
7704;DHT22;3894;49.700;10.770;2022-12-16T05:28:22;-2.70;99.90
7704;DHT22;3894;49.700;10.770;2022-12-16T05:31:06;-2.70;99.90
7704;DHT22;3894;49.700;10.770;2022-12-16T05:33:50;-2.70;99.90
7704;DHT22;3894;49.700;10.770;2022-12-16T05:36:34;-2.70;99.90
7704;DHT22;3894;49.700;10.770;2022-12-16T05:39:18;-2.70;99.90
7704;DHT22;3894;49.700;10.770;2022-12-16T05:42:02;-2.70;99.90
7704;DHT22;3894;49.700;10.770;2022-12-16T05:44:46;-2.70;99.90
7704;DHT22;3894;49.700;10.770;2022-12-16T05:47:30;-2.70;99.90
7704;DHT22;3894;49.700;10.770;2022-12-16T05:50:14;-2.70;99.90
7704;DHT22;3894;49.700;10.770;2022-12-16T05:52:58;-2.70;99.90
7704;DHT22;3894;49.700;10.770;2022-12-16T05:55:42;-2.70;99.90
7704;DHT22;3894;49.700;10.770;2022-12-16T05:58:27;-2.70;99.90
7704;DHT22;3894;49.700;10.770;2022-12-16T06:01:12;-2.70;99.90
7704;DHT22;3894;49.700;10.770;2022-12-16T06:03:56;-2.70;99.90
7704;DHT22;3894;49.700;10.770;2022-12-16T06:06:41;-2.70;99.90
7704;DHT22;3894;49.700;10.770;2022-12-16T06:09:25;-2.70;99.90
7704;DHT22;3894;49.700;10.770;2022-12-16T06:12:09;-2.80;99.90
7704;DHT22;3894;49.700;10.770;2022-12-16T06:14:53;-2.80;99.90
7704;DHT22;3894;49.700;10.770;2022-12-16T06:17:41;-2.70;99.90
7704;DHT22;3894;49.700;10.770;2022-12-16T06:20:25;-2.80;99.90
7704;DHT22;3894;49.700;10.770;2022-12-16T06:23:10;-2.70;99.90
7704;DHT22;3894;49.700;10.770;2022-12-16T06:25:54;-2.80;99.90
7704;DHT22;3894;49.700;10.770;2022-12-16T06:28:38;-2.80;99.90
7704;DHT22;3894;49.700;10.770;2022-12-16T06:31:22;-2.80;99.90
7704;DHT22;3894;49.700;10.770;2022-12-16T06:34:06;-2.80;99.90
7704;DHT22;3894;49.700;10.770;2022-12-16T06:36:50;-2.90;99.90
7704;DHT22;3894;49.700;10.770;2022-12-16T06:39:34;-2.90;99.90
7704;DHT22;3894;49.700;10.770;2022-12-16T06:42:18;-2.90;99.90
7704;DHT22;3894;49.700;10.770;2022-12-16T06:45:03;-2.90;99.90
7704;DHT22;3894;49.700;10.770;2022-12-16T06:47:47;-2.90;99.90
7704;DHT22;3894;49.700;10.770;2022-12-16T06:50:31;-2.90;99.90
7704;DHT22;3894;49.700;10.770;2022-12-16T06:53:14;-2.90;99.90
7704;DHT22;3894;49.700;10.770;2022-12-16T06:55:58;-2.90;99.90
7704;DHT22;3894;49.700;10.770;2022-12-16T06:58:43;-2.90;99.90
7704;DHT22;3894;49.700;10.770;2022-12-16T07:01:27;-2.90;99.90
7704;DHT22;3894;49.700;10.770;2022-12-16T07:04:11;-3.00;99.90
7704;DHT22;3894;49.700;10.770;2022-12-16T07:06:55;-3.00;99.90
7704;DHT22;3894;49.700;10.770;2022-12-16T07:09:39;-3.00;99.90
7704;DHT22;3894;49.700;10.770;2022-12-16T07:12:23;-2.90;99.90
7704;DHT22;3894;49.700;10.770;2022-12-16T07:15:08;-2.90;99.90
7704;DHT22;3894;49.700;10.770;2022-12-16T07:17:52;-2.90;99.90
7704;DHT22;3894;49.700;10.770;2022-12-16T07:20:36;-2.90;99.90
7704;DHT22;3894;49.700;10.770;2022-12-16T07:23:20;-2.90;99.90
7704;DHT22;3894;49.700;10.770;2022-12-16T07:26:04;-2.90;99.90
7704;DHT22;3894;49.700;10.770;2022-12-16T07:28:48;-2.90;99.90
7704;DHT22;3894;49.700;10.770;2022-12-16T07:31:32;-2.90;99.90
7704;DHT22;3894;49.700;10.770;2022-12-16T07:34:16;-2.80;99.90
7704;DHT22;3894;49.700;10.770;2022-12-16T07:37:00;-2.80;99.90
7704;DHT22;3894;49.700;10.770;2022-12-16T07:39:44;-2.80;99.90
7704;DHT22;3894;49.700;10.770;2022-12-16T07:42:28;-2.80;99.90
7704;DHT22;3894;49.700;10.770;2022-12-16T07:45:12;-2.80;99.90
7704;DHT22;3894;49.700;10.770;2022-12-16T07:47:56;-2.80;99.90
7704;DHT22;3894;49.700;10.770;2022-12-16T07:50:41;-2.80;99.90
7704;DHT22;3894;49.700;10.770;2022-12-16T07:53:25;-2.70;99.90
7704;DHT22;3894;49.700;10.770;2022-12-16T07:56:09;-2.70;99.90
7704;DHT22;3894;49.700;10.770;2022-12-16T07:58:53;-2.70;99.90
7704;DHT22;3894;49.700;10.770;2022-12-16T08:01:51;-2.70;99.90
7704;DHT22;3894;49.700;10.770;2022-12-16T08:04:35;-2.70;99.90
7704;DHT22;3894;49.700;10.770;2022-12-16T08:07:20;-2.70;99.90
7704;DHT22;3894;49.700;10.770;2022-12-16T08:10:04;-2.60;99.90
7704;DHT22;3894;49.700;10.770;2022-12-16T08:12:48;-2.60;99.90
7704;DHT22;3894;49.700;10.770;2022-12-16T08:15:32;-2.60;99.90
7704;DHT22;3894;49.700;10.770;2022-12-16T08:18:16;-2.60;99.90
7704;DHT22;3894;49.700;10.770;2022-12-16T08:21:01;-2.60;99.90
7704;DHT22;3894;49.700;10.770;2022-12-16T08:23:45;-2.60;99.90
7704;DHT22;3894;49.700;10.770;2022-12-16T08:26:29;-2.60;99.90
7704;DHT22;3894;49.700;10.770;2022-12-16T08:29:13;-2.50;99.90
7704;DHT22;3894;49.700;10.770;2022-12-16T08:31:57;-2.50;99.90
7704;DHT22;3894;49.700;10.770;2022-12-16T08:34:41;-2.50;99.90
7704;DHT22;3894;49.700;10.770;2022-12-16T08:37:25;-2.50;99.90
7704;DHT22;3894;49.700;10.770;2022-12-16T08:40:09;-2.50;99.90
7704;DHT22;3894;49.700;10.770;2022-12-16T08:42:55;-2.50;99.90
7704;DHT22;3894;49.700;10.770;2022-12-16T08:45:41;-2.50;99.90
7704;DHT22;3894;49.700;10.770;2022-12-16T08:48:25;-2.50;99.90
7704;DHT22;3894;49.700;10.770;2022-12-16T08:51:09;-2.40;99.90
7704;DHT22;3894;49.700;10.770;2022-12-16T08:53:53;-2.40;99.90
7704;DHT22;3894;49.700;10.770;2022-12-16T08:56:38;-2.40;99.90
7704;DHT22;3894;49.700;10.770;2022-12-16T08:59:22;-2.40;99.90
7704;DHT22;3894;49.700;10.770;2022-12-16T09:02:09;-2.40;99.90
7704;DHT22;3894;49.700;10.770;2022-12-16T09:04:53;-2.40;99.90
7704;DHT22;3894;49.700;10.770;2022-12-16T09:07:37;-2.40;99.90
7704;DHT22;3894;49.700;10.770;2022-12-16T09:10:21;-2.40;99.90
7704;DHT22;3894;49.700;10.770;2022-12-16T09:13:11;-2.40;99.90
7704;DHT22;3894;49.700;10.770;2022-12-16T09:15:56;-2.40;99.90
7704;DHT22;3894;49.700;10.770;2022-12-16T09:18:40;-2.30;99.90
7704;DHT22;3894;49.700;10.770;2022-12-16T09:21:24;-2.30;99.90
7704;DHT22;3894;49.700;10.770;2022-12-16T09:24:08;-2.30;99.90
7704;DHT22;3894;49.700;10.770;2022-12-16T09:26:52;-2.30;99.90
7704;DHT22;3894;49.700;10.770;2022-12-16T09:29:36;-2.30;99.90
7704;DHT22;3894;49.700;10.770;2022-12-16T09:32:21;-2.30;99.90
7704;DHT22;3894;49.700;10.770;2022-12-16T09:35:15;-2.30;99.90
7704;DHT22;3894;49.700;10.770;2022-12-16T09:38:00;-2.30;99.90
7704;DHT22;3894;49.700;10.770;2022-12-16T09:40:44;-2.30;99.90
7704;DHT22;3894;49.700;10.770;2022-12-16T09:43:43;-2.30;99.90
7704;DHT22;3894;49.700;10.770;2022-12-16T09:46:55;-2.20;99.90
7704;DHT22;3894;49.700;10.770;2022-12-16T09:49:47;-2.10;99.90
7704;DHT22;3894;49.700;10.770;2022-12-16T09:52:55;-2.00;99.90
7704;DHT22;3894;49.700;10.770;2022-12-16T09:55:42;-2.00;99.90
7704;DHT22;3894;49.700;10.770;2022-12-16T09:58:32;-1.90;99.90
7704;DHT22;3894;49.700;10.770;2022-12-16T10:01:20;-1.90;99.90
7704;DHT22;3894;49.700;10.770;2022-12-16T10:04:06;-1.90;99.90
7704;DHT22;3894;49.700;10.770;2022-12-16T10:06:59;-1.80;99.90
7704;DHT22;3894;49.700;10.770;2022-12-16T10:13:18;-1.70;99.90
7704;DHT22;3894;49.700;10.770;2022-12-16T10:16:28;-1.70;99.90
7704;DHT22;3894;49.700;10.770;2022-12-16T10:19:32;-1.60;99.90
7704;DHT22;3894;49.700;10.770;2022-12-16T10:25:25;-1.50;99.90
7704;DHT22;3894;49.700;10.770;2022-12-16T10:28:18;-1.40;99.90
7704;DHT22;3894;49.700;10.770;2022-12-16T10:31:14;-1.40;99.90
7704;DHT22;3894;49.700;10.770;2022-12-16T10:33:59;-1.50;99.90
7704;DHT22;3894;49.700;10.770;2022-12-16T10:36:44;-1.60;99.90
7704;DHT22;3894;49.700;10.770;2022-12-16T10:39:38;-1.60;99.90
7704;DHT22;3894;49.700;10.770;2022-12-16T10:42:29;-1.60;99.90
7704;DHT22;3894;49.700;10.770;2022-12-16T10:45:32;-1.60;99.90
7704;DHT22;3894;49.700;10.770;2022-12-16T10:48:24;-1.50;99.90
7704;DHT22;3894;49.700;10.770;2022-12-16T10:51:15;-1.50;99.90
7704;DHT22;3894;49.700;10.770;2022-12-16T11:00:43;-1.60;99.90
7704;DHT22;3894;49.700;10.770;2022-12-16T11:03:30;-1.50;99.90
7704;DHT22;3894;49.700;10.770;2022-12-16T11:06:19;-1.50;99.90
7704;DHT22;3894;49.700;10.770;2022-12-16T11:09:28;-1.50;99.90
7704;DHT22;3894;49.700;10.770;2022-12-16T11:12:16;-1.50;99.90
7704;DHT22;3894;49.700;10.770;2022-12-16T11:15:27;-1.40;99.90
7704;DHT22;3894;49.700;10.770;2022-12-16T11:18:17;-1.50;99.90
7704;DHT22;3894;49.700;10.770;2022-12-16T11:21:16;-1.40;99.90
7704;DHT22;3894;49.700;10.770;2022-12-16T11:24:11;-1.50;99.90
7704;DHT22;3894;49.700;10.770;2022-12-16T11:26:58;-1.50;99.90
7704;DHT22;3894;49.700;10.770;2022-12-16T11:29:57;-1.50;99.90
7704;DHT22;3894;49.700;10.770;2022-12-16T11:32:51;-1.50;99.90
7704;DHT22;3894;49.700;10.770;2022-12-16T11:35:40;-1.50;99.90
7704;DHT22;3894;49.700;10.770;2022-12-16T11:41:33;-1.30;99.90
7704;DHT22;3894;49.700;10.770;2022-12-16T11:44:21;-1.30;99.90
7704;DHT22;3894;49.700;10.770;2022-12-16T11:48:01;-1.40;99.90
7704;DHT22;3894;49.700;10.770;2022-12-16T11:50:19;-1.40;99.90
7704;DHT22;3894;49.700;10.770;2022-12-16T11:53:10;-1.40;99.90
7704;DHT22;3894;49.700;10.770;2022-12-16T11:55:58;-1.40;99.90
7704;DHT22;3894;49.700;10.770;2022-12-16T11:58:47;-1.40;99.90
7704;DHT22;3894;49.700;10.770;2022-12-16T12:01:36;-1.30;99.90
7704;DHT22;3894;49.700;10.770;2022-12-16T12:04:22;-1.40;99.90
7704;DHT22;3894;49.700;10.770;2022-12-16T12:07:34;-1.50;99.90
7704;DHT22;3894;49.700;10.770;2022-12-16T12:10:51;-1.40;99.90
7704;DHT22;3894;49.700;10.770;2022-12-16T12:13:56;-1.30;99.90
7704;DHT22;3894;49.700;10.770;2022-12-16T12:17:06;-1.30;99.90
7704;DHT22;3894;49.700;10.770;2022-12-16T12:20:22;-1.40;99.90
7704;DHT22;3894;49.700;10.770;2022-12-16T12:23:10;-1.30;99.90
7704;DHT22;3894;49.700;10.770;2022-12-16T12:26:10;-1.30;99.90
7704;DHT22;3894;49.700;10.770;2022-12-16T12:29:18;-1.30;99.90
7704;DHT22;3894;49.700;10.770;2022-12-16T12:32:18;-1.30;99.90
7704;DHT22;3894;49.700;10.770;2022-12-16T12:38:38;-1.30;99.90
7704;DHT22;3894;49.700;10.770;2022-12-16T12:41:27;-1.30;99.90
7704;DHT22;3894;49.700;10.770;2022-12-16T12:47:32;-1.30;99.90
7704;DHT22;3894;49.700;10.770;2022-12-16T12:50:30;-1.30;99.90
7704;DHT22;3894;49.700;10.770;2022-12-16T12:56:49;-1.30;99.90
7704;DHT22;3894;49.700;10.770;2022-12-16T12:59:48;-1.30;99.90
7704;DHT22;3894;49.700;10.770;2022-12-16T13:02:56;-1.30;99.90
7704;DHT22;3894;49.700;10.770;2022-12-16T13:05:43;-1.30;99.90
7704;DHT22;3894;49.700;10.770;2022-12-16T13:08:37;-1.20;99.90
7704;DHT22;3894;49.700;10.770;2022-12-16T13:11:24;-1.20;99.90
7704;DHT22;3894;49.700;10.770;2022-12-16T13:17:18;-1.20;99.90
7704;DHT22;3894;49.700;10.770;2022-12-16T13:20:50;-1.20;99.90
7704;DHT22;3894;49.700;10.770;2022-12-16T13:23:31;-1.20;99.90
7704;DHT22;3894;49.700;10.770;2022-12-16T13:26:21;-1.20;99.90
7704;DHT22;3894;49.700;10.770;2022-12-16T13:32:24;-1.30;99.90
7704;DHT22;3894;49.700;10.770;2022-12-16T13:44:11;-1.20;99.90
7704;DHT22;3894;49.700;10.770;2022-12-16T13:46:56;-1.20;99.90
7704;DHT22;3894;49.700;10.770;2022-12-16T13:49:44;-1.20;99.90
7704;DHT22;3894;49.700;10.770;2022-12-16T13:53:13;-1.20;99.90
7704;DHT22;3894;49.700;10.770;2022-12-16T13:58:46;-1.10;99.90
7704;DHT22;3894;49.700;10.770;2022-12-16T14:01:53;-1.10;99.90
7704;DHT22;3894;49.700;10.770;2022-12-16T14:04:43;-1.10;99.90
7704;DHT22;3894;49.700;10.770;2022-12-16T14:07:32;-1.10;99.90
7704;DHT22;3894;49.700;10.770;2022-12-16T14:10:34;-1.10;99.90
7704;DHT22;3894;49.700;10.770;2022-12-16T14:25:33;-1.20;99.90
7704;DHT22;3894;49.700;10.770;2022-12-16T14:28:39;-1.20;99.90
7704;DHT22;3894;49.700;10.770;2022-12-16T14:34:22;-1.30;99.90
7704;DHT22;3894;49.700;10.770;2022-12-16T14:37:13;-1.30;99.90
7704;DHT22;3894;49.700;10.770;2022-12-16T14:39:58;-1.40;99.90
7704;DHT22;3894;49.700;10.770;2022-12-16T14:42:42;-1.40;99.90
7704;DHT22;3894;49.700;10.770;2022-12-16T14:45:35;-1.40;99.90
7704;DHT22;3894;49.700;10.770;2022-12-16T14:48:25;-1.50;99.90
7704;DHT22;3894;49.700;10.770;2022-12-16T14:57:19;-1.50;99.90
7704;DHT22;3894;49.700;10.770;2022-12-16T15:02:54;-1.60;99.90
7704;DHT22;3894;49.700;10.770;2022-12-16T15:05:40;-1.60;99.90
7704;DHT22;3894;49.700;10.770;2022-12-16T15:08:25;-1.60;99.90
7704;DHT22;3894;49.700;10.770;2022-12-16T15:11:14;-1.70;99.90
7704;DHT22;3894;49.700;10.770;2022-12-16T15:14:00;-1.70;99.90
7704;DHT22;3894;49.700;10.770;2022-12-16T15:16:46;-1.70;99.90
7704;DHT22;3894;49.700;10.770;2022-12-16T15:19:50;-1.80;99.90
7704;DHT22;3894;49.700;10.770;2022-12-16T15:22:36;-1.90;99.90
7704;DHT22;3894;49.700;10.770;2022-12-16T15:25:23;-1.90;99.90
7704;DHT22;3894;49.700;10.770;2022-12-16T15:28:35;-2.00;99.90
7704;DHT22;3894;49.700;10.770;2022-12-16T15:31:46;-2.00;99.90
7704;DHT22;3894;49.700;10.770;2022-12-16T15:37:19;-2.10;99.90
7704;DHT22;3894;49.700;10.770;2022-12-16T15:40:13;-2.10;99.90
7704;DHT22;3894;49.700;10.770;2022-12-16T15:43:00;-2.20;99.90
7704;DHT22;3894;49.700;10.770;2022-12-16T15:49:31;-2.20;99.90
7704;DHT22;3894;49.700;10.770;2022-12-16T15:55:35;-2.20;99.90
7704;DHT22;3894;49.700;10.770;2022-12-16T15:58:28;-2.30;99.90
7704;DHT22;3894;49.700;10.770;2022-12-16T16:01:15;-2.30;99.90
7704;DHT22;3894;49.700;10.770;2022-12-16T16:04:00;-2.30;99.90
7704;DHT22;3894;49.700;10.770;2022-12-16T16:06:48;-2.30;99.90
7704;DHT22;3894;49.700;10.770;2022-12-16T16:09:34;-2.30;99.90
7704;DHT22;3894;49.700;10.770;2022-12-16T16:12:20;-2.40;99.90
7704;DHT22;3894;49.700;10.770;2022-12-16T16:15:06;-2.40;99.90
7704;DHT22;3894;49.700;10.770;2022-12-16T16:17:56;-2.40;99.90
7704;DHT22;3894;49.700;10.770;2022-12-16T16:20:41;-2.40;99.90
7704;DHT22;3894;49.700;10.770;2022-12-16T16:23:26;-2.40;99.90
7704;DHT22;3894;49.700;10.770;2022-12-16T16:26:13;-2.50;99.90
7704;DHT22;3894;49.700;10.770;2022-12-16T16:28:58;-2.50;99.90
7704;DHT22;3894;49.700;10.770;2022-12-16T16:31:42;-2.50;99.90
7704;DHT22;3894;49.700;10.770;2022-12-16T16:34:26;-2.50;99.90
7704;DHT22;3894;49.700;10.770;2022-12-16T16:37:15;-2.50;99.90
7704;DHT22;3894;49.700;10.770;2022-12-16T16:40:29;-2.50;99.90
7704;DHT22;3894;49.700;10.770;2022-12-16T16:43:14;-2.50;99.90
7704;DHT22;3894;49.700;10.770;2022-12-16T16:45:58;-2.60;99.90
7704;DHT22;3894;49.700;10.770;2022-12-16T16:48:43;-2.60;99.90
7704;DHT22;3894;49.700;10.770;2022-12-16T16:51:27;-2.70;99.90
7704;DHT22;3894;49.700;10.770;2022-12-16T16:54:11;-2.70;99.90
7704;DHT22;3894;49.700;10.770;2022-12-16T16:56:55;-2.70;99.90
7704;DHT22;3894;49.700;10.770;2022-12-16T16:59:39;-2.70;99.90
7704;DHT22;3894;49.700;10.770;2022-12-16T17:02:24;-2.80;99.90
7704;DHT22;3894;49.700;10.770;2022-12-16T17:05:10;-2.70;99.90
7704;DHT22;3894;49.700;10.770;2022-12-16T17:07:54;-2.80;99.90
7704;DHT22;3894;49.700;10.770;2022-12-16T17:10:38;-2.80;99.90
7704;DHT22;3894;49.700;10.770;2022-12-16T17:13:22;-2.80;99.90
7704;DHT22;3894;49.700;10.770;2022-12-16T17:16:12;-2.80;99.90
7704;DHT22;3894;49.700;10.770;2022-12-16T17:18:57;-2.80;99.90
7704;DHT22;3894;49.700;10.770;2022-12-16T17:21:41;-2.90;99.90
7704;DHT22;3894;49.700;10.770;2022-12-16T17:24:25;-2.90;99.90
7704;DHT22;3894;49.700;10.770;2022-12-16T17:27:19;-2.90;99.90
7704;DHT22;3894;49.700;10.770;2022-12-16T17:30:10;-2.90;99.90
7704;DHT22;3894;49.700;10.770;2022-12-16T17:32:56;-3.00;99.90
7704;DHT22;3894;49.700;10.770;2022-12-16T17:35:40;-3.00;99.90
7704;DHT22;3894;49.700;10.770;2022-12-16T17:38:24;-3.00;99.90
7704;DHT22;3894;49.700;10.770;2022-12-16T17:41:08;-3.00;99.90
7704;DHT22;3894;49.700;10.770;2022-12-16T17:43:52;-3.00;99.90
7704;DHT22;3894;49.700;10.770;2022-12-16T17:46:36;-3.00;99.90
7704;DHT22;3894;49.700;10.770;2022-12-16T17:49:21;-3.00;99.90
7704;DHT22;3894;49.700;10.770;2022-12-16T17:52:05;-3.00;99.90
7704;DHT22;3894;49.700;10.770;2022-12-16T17:54:49;-3.10;99.90
7704;DHT22;3894;49.700;10.770;2022-12-16T17:57:33;-3.10;99.90
7704;DHT22;3894;49.700;10.770;2022-12-16T18:00:17;-3.10;99.90
7704;DHT22;3894;49.700;10.770;2022-12-16T18:03:01;-3.10;99.90
7704;DHT22;3894;49.700;10.770;2022-12-16T18:05:46;-3.10;99.90
7704;DHT22;3894;49.700;10.770;2022-12-16T18:08:31;-3.20;99.90
7704;DHT22;3894;49.700;10.770;2022-12-16T18:11:15;-3.20;99.90
7704;DHT22;3894;49.700;10.770;2022-12-16T18:13:59;-3.20;99.90
7704;DHT22;3894;49.700;10.770;2022-12-16T18:16:43;-3.20;99.90
7704;DHT22;3894;49.700;10.770;2022-12-16T18:19:27;-3.20;99.90
7704;DHT22;3894;49.700;10.770;2022-12-16T18:22:14;-3.30;99.90
7704;DHT22;3894;49.700;10.770;2022-12-16T18:24:58;-3.30;99.90
7704;DHT22;3894;49.700;10.770;2022-12-16T18:27:42;-3.30;99.90
7704;DHT22;3894;49.700;10.770;2022-12-16T18:30:26;-3.30;99.90
7704;DHT22;3894;49.700;10.770;2022-12-16T18:33:10;-3.30;99.90
7704;DHT22;3894;49.700;10.770;2022-12-16T18:35:54;-3.30;99.90
7704;DHT22;3894;49.700;10.770;2022-12-16T18:38:38;-3.30;99.90
7704;DHT22;3894;49.700;10.770;2022-12-16T18:41:22;-3.30;99.90
7704;DHT22;3894;49.700;10.770;2022-12-16T18:44:10;-3.40;99.90
7704;DHT22;3894;49.700;10.770;2022-12-16T18:46:56;-3.40;99.90
7704;DHT22;3894;49.700;10.770;2022-12-16T18:49:40;-3.40;99.90
7704;DHT22;3894;49.700;10.770;2022-12-16T18:52:24;-3.40;99.90
7704;DHT22;3894;49.700;10.770;2022-12-16T18:55:08;-3.40;99.90
7704;DHT22;3894;49.700;10.770;2022-12-16T18:57:53;-3.40;99.90
7704;DHT22;3894;49.700;10.770;2022-12-16T19:00:37;-3.40;99.90
7704;DHT22;3894;49.700;10.770;2022-12-16T19:03:21;-3.40;99.90
7704;DHT22;3894;49.700;10.770;2022-12-16T19:06:06;-3.50;99.90
7704;DHT22;3894;49.700;10.770;2022-12-16T19:08:50;-3.40;99.90
7704;DHT22;3894;49.700;10.770;2022-12-16T19:11:34;-3.50;99.90
7704;DHT22;3894;49.700;10.770;2022-12-16T19:14:19;-3.50;99.90
7704;DHT22;3894;49.700;10.770;2022-12-16T19:17:03;-3.40;99.90